Terminal Aerodrome Forecast
Issued by NWS

Home | Current Version | Previous Version | Text Only | Print | Product List | Glossary On
Versions: 1 2 3 4 5 6 7 8 9 10 11 12 13 14 15 16 17 18 19 20 21 22 23 24 25 26 27 28 29 30 31 32 33 34 35 36
000
FTUS44 KFWD 230308 AAA
TAFAFW
TAF AMD
KAFW 230308Z 2303/2324 08008KT P6SM -RA OVC018
     FM230800 12007KT 5SM BR OVC008
     FM231400 15012KT 6SM BR VCSH OVC008
     FM231700 15014KT P6SM OVC015
     FM232000 16016KT P6SM VCSH OVC025
      TEMPO 2320/2324 3SM -TSRA BR OVC012CB=

USA.gov is the U.S. government's official web portal to all federal, state and local government web resources and services.